Mazatlan, Mexico

9:26 AM MDT on August 01, 2015 (GMT -0600)
CENTRO HISTORICO - MAZATLAN | | Change Station
CLOSE
Current Station
Personal Weather Station
Location: Mazatlan, Si
Elevation: 25 ft
Nearby Weather Stations

Elev 25 ft 23.21 °N, 106.43 °W | Updated 10 minutes ago

Mostly Cloudy
Mostly Cloudy
89.9 °F
Feels Like 109 °F
N
2.0
Wind Variable Wind from ESE
Gusts 5.0 mph

Today
High -- | Low -- °F
--% Chance of Precip.
Yesterday
High -- | Low -- °F
Precip. -- in
6:36 AM 7:47 PM
Full, 98% visible
Pressure 29.89 in
Visibility 12.0 miles
Clouds Few 9000 ft
Mostly Cloudy 23000 ft
Heat Index 109 °F
Dew Point 81 °F
Humidity 75%
Rainfall 0.00 in
Snow Depth Not available.
UV 1 out of 12
Pollen Not available.
Air Quality Not available.
Flu Activity Not available.
METAR MMMZ 011448Z 08008KT 12SM FEW090 BKN230 26/22 A2989 RMK SLP120 52013 905 8/032 ISOL CU

More Conditions Fewer Conditions

Pressure 29.89 in
Visibility 12.0 miles
Clouds Few 9000 ft
Mostly Cloudy 23000 ft
Heat Index 109 °F
Dew Point 81 °F
Humidity 75%
Rainfall 0.00 in
Snow Depth Not available.
UV 1 out of 12
Pollen Not available.
Air Quality Not available.
Flu Activity Not available.
METAR MMMZ 011448Z 08008KT 12SM FEW090 BKN230 26/22 A2989 RMK SLP120 52013 905 8/032 ISOL CU

More Conditions Fewer Conditions

10-Day Weather Forecast

×

Almanac

Astronomy

Aug. 01, 2015 Rise Set
Actual Time
Civil Twilight
Nautical Twilight
Astronomical Twilight
Moon
Length of Visible Light
Length of Day
Tomorrow will be .
, % of the Moon is Illuminated

Today's Extremes

Country Highs Country Lows

Community

WunderPhotos

Upload Photos

1,842,963 photos uploaded!

WunderBlogs® & News

Nearby

Air Quality

  Air Quality AQ Index Pollutant
Not available.

Snow Depth

Station Depth Elevation

Earthquake Activity

City Distance Mag. Time & Date
Minimum magnitude displayed is 2.5.

Coastal Water Temperatures

Place Temperature

Stations

Nearby Weather Stations

Station Location Temp. Windchill Dew Point Humidity Wind Precip. Elev Updated Type